createdAt,value
2018-04-01T00:00:19.715Z,52.00
2018-04-01T00:01:19.650Z,51.40
2018-04-01T00:03:13.279Z,53.40
2018-04-01T00:04:13.254Z,52.40
2018-04-01T00:06:07.050Z,51.10
2018-04-01T00:07:06.983Z,52.00
2018-04-01T00:09:02.428Z,50.90
2018-04-01T00:10:01.736Z,49.10
2018-04-01T00:11:55.256Z,50.70
2018-04-01T00:12:55.188Z,51.20
2018-04-01T00:14:48.850Z,48.60
2018-04-01T00:15:48.809Z,49.90
2018-04-01T00:17:42.426Z,45.80
2018-04-01T00:18:42.374Z,45.30
2018-04-01T00:20:35.902Z,43.50
2018-04-01T00:21:35.878Z,45.60
2018-04-01T00:23:29.517Z,42.20
2018-04-01T00:24:29.451Z,43.00
2018-04-01T00:26:23.873Z,44.80
2018-04-01T00:27:23.015Z,42.30
2018-04-01T00:29:17.443Z,44.40
2018-04-01T00:30:16.639Z,43.50
2018-04-01T00:32:11.069Z,43.40
2018-04-01T00:33:10.327Z,43.30
2018-04-01T00:35:04.270Z,44.40
2018-04-01T00:36:03.822Z,41.70
2018-04-01T00:37:58.247Z,42.80
2018-04-01T00:38:57.462Z,43.60
2018-04-01T00:40:51.214Z,44.10
2018-04-01T00:41:51.170Z,44.70
2018-04-01T00:43:44.678Z,45.80
2018-04-01T00:44:44.668Z,44.70
2018-04-01T00:46:39.092Z,43.80
2018-04-01T00:47:38.246Z,44.10
2018-04-01T00:49:32.002Z,43.10
2018-04-01T00:50:31.989Z,42.10
2018-04-01T00:52:26.423Z,44.40
2018-04-01T00:53:25.569Z,41.50
2018-04-01T00:55:20.004Z,47.70
2018-04-01T00:56:19.150Z,46.30
2018-04-01T00:58:13.573Z,45.80
2018-04-01T00:59:12.661Z,46.30
2018-04-01T01:01:06.346Z,46.50
2018-04-01T01:02:06.284Z,45.20
2018-04-01T01:03:59.784Z,44.50
2018-04-01T01:04:59.751Z,44.10
2018-04-01T01:06:53.338Z,45.00
2018-04-01T01:07:53.310Z,43.80
2018-04-01T01:09:47.732Z,48.30
2018-04-01T01:10:46.930Z,44.60
2018-04-01T01:12:40.425Z,47.40
2018-04-01T01:13:40.359Z,45.50
2018-04-01T01:15:34.010Z,46.70
2018-04-01T01:16:33.997Z,47.20
2018-04-01T01:18:27.588Z,45.80
2018-04-01T01:19:27.550Z,45.60
2018-04-01T01:21:21.971Z,46.50
2018-04-01T01:22:21.327Z,46.40
2018-04-01T01:24:15.776Z,46.40
2018-04-01T01:25:15.004Z,46.20
2018-04-01T01:27:08.984Z,47.80
2018-04-01T01:28:08.644Z,48.70
2018-04-01T01:30:03.065Z,49.30
2018-04-01T01:31:02.223Z,48.20
2018-04-01T01:32:55.897Z,48.50
2018-04-01T01:33:55.841Z,49.70
2018-04-01T01:35:50.277Z,48.80
2018-04-01T01:36:49.561Z,48.70
2018-04-01T01:38:43.125Z,47.80
2018-04-01T01:39:43.081Z,48.00
2018-04-01T01:41:36.781Z,47.70
2018-04-01T01:42:36.729Z,46.80
2018-04-01T01:43:36.721Z,48.30
2018-04-01T01:44:36.706Z,48.50
2018-04-01T01:45:36.697Z,50.40
2018-04-01T01:46:36.684Z,50.40
2018-04-01T01:47:36.677Z,48.40
2018-04-01T01:48:36.667Z,48.90
2018-04-01T01:49:36.652Z,49.30
2018-04-01T01:50:36.639Z,50.50
2018-04-01T01:51:36.631Z,47.80
2018-04-01T01:52:36.624Z,47.20
2018-04-01T01:53:36.619Z,48.40
2018-04-01T01:54:36.605Z,47.80
2018-04-01T01:55:36.600Z,47.90
2018-04-01T01:56:36.585Z,46.80
2018-04-01T01:57:36.568Z,47.10
2018-04-01T01:58:36.557Z,46.50
2018-04-01T01:59:36.550Z,47.60
2018-04-01T02:00:36.534Z,46.50
2018-04-01T02:01:36.528Z,47.90
2018-04-01T02:02:36.520Z,49.00
2018-04-01T02:03:36.504Z,49.30
2018-04-01T02:04:36.499Z,49.00
2018-04-01T02:05:36.494Z,47.20
2018-04-01T02:06:36.481Z,50.00
2018-04-01T02:07:36.464Z,48.40
2018-04-01T02:08:36.460Z,47.50
2018-04-01T02:09:36.439Z,47.50
2018-04-01T02:10:36.430Z,49.20
2018-04-01T02:11:36.425Z,48.60
2018-04-01T02:12:36.411Z,47.80
2018-04-01T02:13:36.408Z,47.60
2018-04-01T02:14:36.389Z,49.10
2018-04-01T02:15:36.374Z,48.10
2018-04-01T02:16:36.367Z,49.20
2018-04-01T02:17:36.362Z,50.20
2018-04-01T02:18:36.347Z,49.20
2018-04-01T02:19:36.337Z,46.30
2018-04-01T02:20:36.341Z,47.20
2018-04-01T02:21:36.309Z,46.80
2018-04-01T02:22:36.306Z,46.90
2018-04-01T02:23:36.294Z,46.60
2018-04-01T02:24:36.281Z,45.60
2018-04-01T02:25:36.274Z,47.10
2018-04-01T02:26:36.265Z,45.80
2018-04-01T02:27:36.254Z,48.30
2018-04-01T02:28:36.242Z,46.90
2018-04-01T02:29:36.231Z,47.20
2018-04-01T02:30:36.223Z,48.70
2018-04-01T02:31:36.289Z,48.80
2018-04-01T02:32:36.197Z,47.30
2018-04-01T02:33:36.184Z,46.20
2018-04-01T02:34:36.181Z,46.70
2018-04-01T02:35:36.168Z,47.40
2018-04-01T02:36:36.156Z,48.10
2018-04-01T02:37:36.148Z,48.90
2018-04-01T02:38:36.134Z,48.80
2018-04-01T02:39:36.127Z,48.00
2018-04-01T02:40:36.115Z,48.80
2018-04-01T02:41:36.105Z,50.30
2018-04-01T02:42:36.095Z,46.80
2018-04-01T02:43:36.084Z,48.70
2018-04-01T02:44:36.070Z,49.10
2018-04-01T02:45:36.061Z,47.50
2018-04-01T02:46:36.052Z,48.00
2018-04-01T02:47:36.066Z,47.70
2018-04-01T02:48:37.013Z,47.40
2018-04-01T02:49:36.021Z,48.30
2018-04-01T02:50:36.010Z,49.40
2018-04-01T02:51:36.002Z,47.50
2018-04-01T02:52:35.988Z,49.50
2018-04-01T02:53:35.978Z,48.20
2018-04-01T02:54:35.964Z,48.80
2018-04-01T02:55:35.960Z,47.10
2018-04-01T02:56:35.947Z,49.30
2018-04-01T02:57:35.937Z,47.00
2018-04-01T02:58:35.926Z,49.40
2018-04-01T02:59:35.916Z,48.50
2018-04-01T03:00:35.909Z,48.50
2018-04-01T03:01:35.891Z,49.60
2018-04-01T03:02:35.878Z,48.90
2018-04-01T03:03:35.881Z,47.30
2018-04-01T03:04:35.935Z,48.10
2018-04-01T03:05:35.861Z,51.30
2018-04-01T03:06:35.839Z,49.60
2018-04-01T03:07:35.829Z,49.00
2018-04-01T03:08:35.820Z,49.80
2018-04-01T03:09:35.809Z,48.30
2018-04-01T03:10:35.797Z,48.00
2018-04-01T03:11:35.786Z,48.80
2018-04-01T03:12:35.776Z,48.20
2018-04-01T03:13:35.770Z,50.50
2018-04-01T03:14:35.784Z,47.90
2018-04-01T03:15:35.769Z,49.40
2018-04-01T03:16:35.737Z,46.60
2018-04-01T03:17:35.727Z,48.30
2018-04-01T03:18:35.712Z,49.10
2018-04-01T03:19:35.707Z,49.60
2018-04-01T03:20:35.695Z,47.60
2018-04-01T03:21:35.682Z,47.60
2018-04-01T03:22:35.673Z,49.10
2018-04-01T03:23:35.663Z,49.10
2018-04-01T03:24:35.649Z,48.30
2018-04-01T03:25:35.644Z,47.70
2018-04-01T03:26:35.631Z,49.20
2018-04-01T03:27:35.618Z,48.70
2018-04-01T03:28:35.609Z,51.40
2018-04-01T03:29:35.597Z,47.70
2018-04-01T03:30:35.597Z,47.80
2018-04-01T03:31:35.590Z,49.40
2018-04-01T03:32:35.567Z,49.60
2018-04-01T03:33:35.557Z,49.70
2018-04-01T03:34:35.546Z,49.00
2018-04-01T03:35:35.535Z,47.60
2018-04-01T03:36:35.522Z,49.20
2018-04-01T03:37:35.512Z,48.80
2018-04-01T03:38:35.504Z,49.50
2018-04-01T03:39:35.494Z,48.50
2018-04-01T03:40:35.483Z,48.50
2018-04-01T03:41:35.473Z,48.90
2018-04-01T03:42:35.468Z,47.00
2018-04-01T03:43:35.453Z,47.50
2018-04-01T03:44:35.442Z,48.20
2018-04-01T03:45:35.432Z,49.40
2018-04-01T03:46:35.422Z,48.50
2018-04-01T03:47:35.410Z,47.90
2018-04-01T03:48:35.395Z,47.30
2018-04-01T03:49:35.394Z,48.50
2018-04-01T03:50:35.378Z,46.00
2018-04-01T03:51:35.372Z,47.20
2018-04-01T03:52:35.356Z,48.10
2018-04-01T03:53:35.356Z,47.50
2018-04-01T03:54:35.334Z,48.20
2018-04-01T03:55:35.321Z,47.60
2018-04-01T03:56:35.313Z,47.10
2018-04-01T03:57:35.304Z,50.40
2018-04-01T03:58:35.290Z,49.20
2018-04-01T03:59:35.284Z,47.80
2018-04-01T04:00:35.277Z,49.70
2018-04-01T04:01:35.259Z,48.90
2018-04-01T04:02:35.251Z,47.30
2018-04-01T04:03:35.242Z,48.90
2018-04-01T04:04:35.234Z,48.00
2018-04-01T04:05:35.216Z,47.20
2018-04-01T04:06:35.209Z,48.20
2018-04-01T04:07:35.198Z,47.40
2018-04-01T04:08:35.190Z,49.10
2018-04-01T04:09:35.174Z,46.70
2018-04-01T04:10:35.167Z,48.00
2018-04-01T04:11:35.158Z,48.30
2018-04-01T04:12:35.151Z,46.10
2018-04-01T04:13:35.133Z,48.10
2018-04-01T04:14:35.124Z,48.00
2018-04-01T04:15:35.114Z,48.90
2018-04-01T04:16:35.103Z,46.80
2018-04-01T04:17:35.101Z,47.60
2018-04-01T04:18:35.079Z,47.60
2018-04-01T04:19:35.070Z,47.20
2018-04-01T04:20:35.064Z,48.50
2018-04-01T04:21:35.047Z,49.00
2018-04-01T04:22:35.037Z,48.20
2018-04-01T04:23:35.034Z,48.70
2018-04-01T04:24:35.016Z,47.10
2018-04-01T04:25:35.001Z,48.90
2018-04-01T04:26:35.006Z,46.90
2018-04-01T04:27:34.984Z,49.50
2018-04-01T04:28:34.975Z,47.30
2018-04-01T04:29:34.965Z,48.70
2018-04-01T04:30:34.952Z,48.80
2018-04-01T04:31:34.940Z,47.30
2018-04-01T04:32:34.944Z,47.90
2018-04-01T04:33:34.923Z,47.40
2018-04-01T04:34:34.920Z,47.60
2018-04-01T04:35:34.895Z,47.60
2018-04-01T04:36:34.886Z,46.60
2018-04-01T04:37:34.878Z,48.00
2018-04-01T04:38:34.866Z,48.80
2018-04-01T04:39:34.858Z,47.40
2018-04-01T04:40:34.851Z,47.40
2018-04-01T04:41:34.836Z,48.70
2018-04-01T04:42:34.824Z,47.30
2018-04-01T04:43:34.821Z,46.70
2018-04-01T04:44:34.806Z,46.50
2018-04-01T04:45:35.528Z,47.70
2018-04-01T04:46:34.782Z,48.70
2018-04-01T04:47:34.774Z,48.90
2018-04-01T04:48:34.773Z,49.10
2018-04-01T04:49:34.748Z,50.90
2018-04-01T04:50:34.740Z,47.30
2018-04-01T04:51:34.729Z,48.80
2018-04-01T04:52:34.717Z,48.50
2018-04-01T04:53:34.711Z,47.40
2018-04-01T04:54:34.696Z,47.70
2018-04-01T04:55:34.682Z,47.70
2018-04-01T04:56:34.686Z,47.10
2018-04-01T04:57:34.671Z,45.70
2018-04-01T04:58:34.658Z,44.80
2018-04-01T04:59:34.644Z,44.70
2018-04-01T05:00:34.629Z,46.50
2018-04-01T05:01:34.620Z,45.60
2018-04-01T05:02:34.618Z,44.30
2018-04-01T05:03:34.601Z,45.70
2018-04-01T05:04:34.587Z,45.30
2018-04-01T05:05:34.578Z,44.30
2018-04-01T05:06:34.564Z,44.30
2018-04-01T05:07:34.556Z,45.40
2018-04-01T05:08:34.549Z,44.70
2018-04-01T05:09:34.534Z,47.00
2018-04-01T05:10:34.532Z,44.90
2018-04-01T05:11:34.516Z,46.60
2018-04-01T05:12:34.505Z,44.80
2018-04-01T05:13:34.489Z,44.90
2018-04-01T05:14:34.478Z,45.60
2018-04-01T05:15:34.468Z,44.90
2018-04-01T05:16:34.463Z,44.70
2018-04-01T05:17:34.450Z,45.50
2018-04-01T05:18:34.439Z,45.80
2018-04-01T05:19:34.432Z,43.40
2018-04-01T05:20:34.415Z,44.40
2018-04-01T05:21:34.408Z,44.50
2018-04-01T05:22:34.396Z,44.70
2018-04-01T05:23:34.386Z,45.90
2018-04-01T05:24:34.374Z,46.30
2018-04-01T05:25:34.362Z,46.40
2018-04-01T05:26:34.355Z,44.70
2018-04-01T05:27:34.343Z,46.70
2018-04-01T05:28:34.330Z,45.30
2018-04-01T05:29:34.320Z,46.20
2018-04-01T05:30:34.310Z,46.00
2018-04-01T05:31:34.315Z,46.00
2018-04-01T05:32:34.288Z,47.60
2018-04-01T05:33:34.279Z,47.20
2018-04-01T05:34:34.267Z,46.10
2018-04-01T05:35:34.256Z,46.10
2018-04-01T05:36:34.242Z,46.20
2018-04-01T05:37:34.231Z,46.60
2018-04-01T05:38:34.222Z,48.00
2018-04-01T05:39:34.213Z,44.20
2018-04-01T05:40:34.202Z,44.60
2018-04-01T05:41:34.196Z,45.00
2018-04-01T05:42:34.177Z,46.40
2018-04-01T05:43:34.174Z,48.10
2018-04-01T05:44:34.160Z,46.10
2018-04-01T05:45:34.150Z,44.70
2018-04-01T05:46:34.138Z,45.50
2018-04-01T05:47:34.122Z,45.30
2018-04-01T05:48:34.159Z,45.80
2018-04-01T05:49:34.104Z,47.10
2018-04-01T05:50:34.100Z,46.20
2018-04-01T05:51:34.113Z,46.00
2018-04-01T05:52:34.074Z,47.90
2018-04-01T05:53:34.065Z,46.90
2018-04-01T05:54:34.063Z,46.40
2018-04-01T05:55:34.046Z,46.40
2018-04-01T05:56:34.033Z,48.50
2018-04-01T05:57:34.020Z,47.20
2018-04-01T05:58:34.006Z,46.80
2018-04-01T05:59:34.015Z,47.40
2018-04-01T06:00:33.987Z,47.30
2018-04-01T06:01:33.980Z,45.00
2018-04-01T06:02:33.966Z,46.50
2018-04-01T06:03:33.978Z,44.90
2018-04-01T06:04:33.940Z,46.90
2018-04-01T06:05:33.940Z,45.70
2018-04-01T06:06:33.922Z,47.90
2018-04-01T06:07:33.912Z,47.50
2018-04-01T06:08:33.913Z,47.40
2018-04-01T06:09:33.890Z,43.40
2018-04-01T06:10:33.879Z,45.60
2018-04-01T06:11:33.877Z,45.70
2018-04-01T06:12:33.860Z,46.20
2018-04-01T06:13:33.850Z,45.10
2018-04-01T06:14:33.838Z,45.50
2018-04-01T06:15:33.827Z,44.80
2018-04-01T06:16:33.814Z,44.20
2018-04-01T06:17:33.810Z,43.70
2018-04-01T06:18:33.791Z,44.40
2018-04-01T06:19:33.807Z,44.70
2018-04-01T06:20:33.778Z,45.30
2018-04-01T06:21:33.763Z,46.90
2018-04-01T06:22:33.750Z,46.30
2018-04-01T06:23:33.741Z,47.10
2018-04-01T06:24:33.729Z,46.70
2018-04-01T06:25:33.725Z,47.90
2018-04-01T06:26:33.713Z,48.60
2018-04-01T06:27:33.700Z,46.80
2018-04-01T06:28:33.689Z,46.50
2018-04-01T06:29:33.677Z,47.20
2018-04-01T06:30:33.666Z,48.30
2018-04-01T06:31:33.659Z,48.90
2018-04-01T06:32:33.645Z,47.80
2018-04-01T06:33:33.634Z,47.20
2018-04-01T06:34:33.621Z,48.50
2018-04-01T06:35:33.616Z,46.70
2018-04-01T06:36:33.600Z,46.30
2018-04-01T06:37:33.591Z,47.70
2018-04-01T06:38:33.582Z,48.10
2018-04-01T06:39:33.572Z,48.80
2018-04-01T06:40:33.560Z,49.10
2018-04-01T06:41:33.548Z,48.00
2018-04-01T06:42:33.536Z,49.80
2018-04-01T06:43:33.524Z,49.20
2018-04-01T06:44:33.515Z,48.50
2018-04-01T06:45:33.505Z,50.30
2018-04-01T06:46:33.497Z,48.20
2018-04-01T06:47:33.482Z,48.20
2018-04-01T06:48:33.473Z,47.00
2018-04-01T06:49:33.461Z,47.70
2018-04-01T06:50:33.449Z,48.80
2018-04-01T06:51:33.442Z,49.40
2018-04-01T06:52:33.429Z,51.30
2018-04-01T06:53:33.414Z,48.10
2018-04-01T06:54:33.407Z,50.30
2018-04-01T06:55:33.397Z,46.00
2018-04-01T06:56:33.386Z,48.00
2018-04-01T06:57:33.376Z,45.10
2018-04-01T06:58:33.364Z,46.20
2018-04-01T06:59:33.351Z,44.60
2018-04-01T07:00:33.344Z,44.80
2018-04-01T07:01:33.329Z,45.80
2018-04-01T07:02:33.368Z,45.70
2018-04-01T07:03:33.313Z,45.60
2018-04-01T07:04:33.300Z,47.60
2018-04-01T07:05:33.292Z,48.10
2018-04-01T07:06:33.275Z,48.70
2018-04-01T07:07:33.273Z,48.80
2018-04-01T07:08:33.257Z,47.50
2018-04-01T07:09:33.247Z,48.90
2018-04-01T07:10:33.235Z,46.10
2018-04-01T07:11:33.225Z,48.50
2018-04-01T07:12:33.216Z,47.10
2018-04-01T07:13:33.200Z,46.40
2018-04-01T07:14:33.193Z,48.00
2018-04-01T07:15:33.179Z,46.40
2018-04-01T07:16:33.169Z,46.00
2018-04-01T07:17:33.212Z,46.20
2018-04-01T07:18:33.147Z,41.60
2018-04-01T07:19:33.134Z,42.50
2018-04-01T07:20:33.126Z,40.60
2018-04-01T07:21:33.119Z,37.60
2018-04-01T07:22:33.106Z,37.40
2018-04-01T07:23:33.096Z,40.10
2018-04-01T07:24:33.083Z,36.20
2018-04-01T07:25:33.074Z,36.90
2018-04-01T07:26:33.058Z,37.80
2018-04-01T07:27:34.030Z,36.80
2018-04-01T07:28:33.038Z,37.00
2018-04-01T07:29:33.026Z,38.90
2018-04-01T07:30:33.023Z,37.80
2018-04-01T07:31:33.016Z,39.40
2018-04-01T07:32:32.993Z,42.30
2018-04-01T07:33:32.985Z,39.70
2018-04-01T07:34:33.534Z,39.10
2018-04-01T07:35:32.960Z,38.60
2018-04-01T07:36:32.950Z,38.00
2018-04-01T07:37:32.944Z,38.70
2018-04-01T07:38:32.928Z,40.80
2018-04-01T07:39:32.916Z,41.70
2018-04-01T07:40:32.909Z,36.60
2018-04-01T07:41:32.896Z,39.80
2018-04-01T07:42:32.890Z,39.20
2018-04-01T07:43:32.877Z,40.90
2018-04-01T07:44:34.538Z,38.80
2018-04-01T07:45:32.858Z,39.10
2018-04-01T07:46:32.842Z,40.20
2018-04-01T07:47:33.541Z,41.20
2018-04-01T07:48:32.823Z,42.10
2018-04-01T07:49:32.813Z,40.10
2018-04-01T07:50:32.800Z,38.20
2018-04-01T07:51:32.792Z,37.70
2018-04-01T07:52:32.784Z,38.90
2018-04-01T07:53:32.773Z,38.60
2018-04-01T07:54:32.782Z,38.70
2018-04-01T07:55:32.747Z,36.30
2018-04-01T07:56:32.736Z,35.40
2018-04-01T07:57:32.726Z,34.00
2018-04-01T07:58:32.729Z,34.70
2018-04-01T07:59:32.707Z,34.80
2018-04-01T08:00:32.711Z,35.20
2018-04-01T08:01:32.684Z,30.90
2018-04-01T08:02:32.677Z,32.10
2018-04-01T08:03:32.664Z,34.60
2018-04-01T08:04:32.652Z,34.30
2018-04-01T08:05:32.648Z,34.80
2018-04-01T08:06:32.634Z,31.70
2018-04-01T08:07:32.621Z,34.30
2018-04-01T08:08:32.613Z,34.30
2018-04-01T08:09:32.607Z,35.50
2018-04-01T08:10:32.621Z,36.40
2018-04-01T08:11:32.593Z,37.00
2018-04-01T08:12:32.571Z,36.70
2018-04-01T08:13:32.559Z,35.30
2018-04-01T08:14:32.547Z,37.70
2018-04-01T08:15:32.540Z,35.60
2018-04-01T08:16:32.539Z,37.00
2018-04-01T08:17:32.533Z,37.40
2018-04-01T08:18:32.508Z,35.40
2018-04-01T08:19:32.504Z,36.60
2018-04-01T08:20:32.484Z,36.30
2018-04-01T08:21:32.476Z,36.80
2018-04-01T08:22:32.474Z,34.30
2018-04-01T08:23:32.453Z,35.10
2018-04-01T08:24:32.440Z,34.80
2018-04-01T08:25:32.438Z,36.00
2018-04-01T08:26:32.423Z,36.00
2018-04-01T08:27:32.417Z,36.30
2018-04-01T08:28:33.040Z,34.60
2018-04-01T08:29:32.404Z,35.80
2018-04-01T08:30:33.045Z,36.10
2018-04-01T08:31:32.369Z,34.90
2018-04-01T08:32:32.364Z,33.50
2018-04-01T08:33:32.352Z,33.30
2018-04-01T08:34:32.357Z,34.10
2018-04-01T08:35:32.353Z,34.50
2018-04-01T08:36:32.317Z,35.30
2018-04-01T08:37:32.308Z,33.30
2018-04-01T08:38:32.298Z,34.00
2018-04-01T08:39:32.297Z,33.60
2018-04-01T08:40:32.283Z,32.80
2018-04-01T08:41:32.279Z,33.70
2018-04-01T08:42:32.262Z,31.80
2018-04-01T08:43:32.248Z,34.90
2018-04-01T08:44:32.240Z,32.60
2018-04-01T08:45:32.231Z,32.20
2018-04-01T08:46:32.259Z,32.70
2018-04-01T08:47:32.205Z,32.40
2018-04-01T08:48:32.200Z,32.50
2018-04-01T08:49:33.239Z,33.40
2018-04-01T08:50:43.049Z,32.60
2018-04-01T08:51:32.189Z,33.70
2018-04-01T08:52:32.167Z,30.60
2018-04-01T08:53:32.151Z,30.10
2018-04-01T08:54:32.137Z,31.40
2018-04-01T08:55:32.129Z,30.70
2018-04-01T08:56:32.140Z,31.60
2018-04-01T08:57:32.114Z,32.30
2018-04-01T08:58:32.101Z,31.90
2018-04-01T08:59:32.138Z,33.70
2018-04-01T09:00:32.084Z,33.10
2018-04-01T09:01:32.068Z,33.50
2018-04-01T09:02:32.063Z,34.40
2018-04-01T09:03:32.052Z,28.90
2018-04-01T09:04:32.042Z,32.80
2018-04-01T09:05:32.034Z,32.80
2018-04-01T09:06:32.023Z,33.30
2018-04-01T09:07:32.008Z,31.60
2018-04-01T09:08:31.997Z,32.80
2018-04-01T09:09:31.993Z,33.30
2018-04-01T09:10:32.045Z,33.20
2018-04-01T09:11:31.972Z,33.50
2018-04-01T09:12:31.966Z,34.50
2018-04-01T09:13:31.961Z,34.60
2018-04-01T09:14:31.946Z,32.80
2018-04-01T09:15:31.938Z,33.30
2018-04-01T09:16:31.931Z,33.70
2018-04-01T09:17:31.917Z,32.30
2018-04-01T09:18:31.905Z,34.00
2018-04-01T09:19:31.902Z,33.70
2018-04-01T09:20:31.887Z,36.10
2018-04-01T09:21:31.878Z,34.70
2018-04-01T09:22:31.867Z,33.50
2018-04-01T09:23:31.861Z,35.00
2018-04-01T09:24:31.851Z,34.10
2018-04-01T09:25:31.837Z,34.90
2018-04-01T09:26:31.830Z,36.60
2018-04-01T09:27:31.823Z,35.90
2018-04-01T09:28:31.806Z,36.40
2018-04-01T09:29:31.804Z,35.00
2018-04-01T09:30:31.795Z,33.50
2018-04-01T09:31:31.782Z,35.20
2018-04-01T09:32:31.781Z,34.90
2018-04-01T09:33:31.763Z,33.10
2018-04-01T09:34:31.770Z,34.90
2018-04-01T09:35:31.745Z,35.20
2018-04-01T09:36:31.737Z,33.30
2018-04-01T09:37:31.727Z,33.60
2018-04-01T09:38:31.714Z,33.40
2018-04-01T09:39:31.705Z,33.10
2018-04-01T09:40:31.694Z,32.90
2018-04-01T09:41:31.687Z,33.50
2018-04-01T09:42:31.676Z,34.00
2018-04-01T09:43:31.669Z,31.90
2018-04-01T09:44:31.662Z,32.80
2018-04-01T09:45:31.651Z,32.10
2018-04-01T09:46:31.645Z,32.40
2018-04-01T09:47:31.656Z,33.80
2018-04-01T09:48:31.629Z,35.00
2018-04-01T09:49:31.620Z,34.70
2018-04-01T09:50:31.607Z,35.10
2018-04-01T09:51:31.595Z,34.20
2018-04-01T09:52:31.590Z,35.00
2018-04-01T09:53:31.572Z,35.70
2018-04-01T09:54:31.564Z,34.20
2018-04-01T09:55:31.563Z,35.30
2018-04-01T09:56:31.552Z,37.40
2018-04-01T09:57:31.542Z,38.60
2018-04-01T09:58:31.531Z,39.40
2018-04-01T09:59:31.517Z,40.30
2018-04-01T10:00:31.513Z,39.60
2018-04-01T10:01:31.504Z,42.10
2018-04-01T10:02:31.517Z,40.50
2018-04-01T10:03:31.491Z,41.70
2018-04-01T10:04:31.481Z,41.80
2018-04-01T10:05:31.467Z,42.10
2018-04-01T10:06:31.457Z,42.90
2018-04-01T10:07:31.450Z,42.60
2018-04-01T10:08:31.437Z,45.00
2018-04-01T10:09:31.428Z,44.80
2018-04-01T10:10:31.420Z,46.70
2018-04-01T10:11:31.411Z,45.60
2018-04-01T10:12:31.395Z,48.30
2018-04-01T10:13:31.390Z,45.50
2018-04-01T10:14:31.378Z,46.10
2018-04-01T10:15:33.060Z,45.90
2018-04-01T10:16:31.362Z,44.10
2018-04-01T10:17:31.351Z,45.90
2018-04-01T10:18:31.357Z,46.00
2018-04-01T10:19:31.333Z,44.20
2018-04-01T10:20:31.324Z,43.30
2018-04-01T10:21:31.315Z,43.60
2018-04-01T10:22:31.301Z,44.70
2018-04-01T10:23:31.296Z,43.20
2018-04-01T10:24:31.284Z,45.60
2018-04-01T10:25:31.276Z,44.40
2018-04-01T10:26:31.268Z,44.50
2018-04-01T10:27:31.259Z,43.60
2018-04-01T10:28:31.272Z,44.70
2018-04-01T10:29:31.235Z,44.00
2018-04-01T10:30:31.228Z,44.10
2018-04-01T10:31:31.217Z,43.70
2018-04-01T10:32:31.230Z,44.80
2018-04-01T10:33:31.211Z,45.40
2018-04-01T10:34:31.192Z,45.10
2018-04-01T10:35:31.179Z,46.90
2018-04-01T10:36:31.173Z,46.80
2018-04-01T10:37:31.157Z,48.10
2018-04-01T10:38:31.147Z,48.20
2018-04-01T10:39:31.141Z,46.70
2018-04-01T10:40:31.130Z,47.40
2018-04-01T10:41:31.120Z,48.70
2018-04-01T10:42:31.110Z,58.50
2018-04-01T10:43:31.101Z,65.30
2018-04-01T10:44:31.092Z,70.70
2018-04-01T10:45:31.085Z,53.20
2018-04-01T10:46:31.071Z,50.40
2018-04-01T10:47:31.063Z,51.20
2018-04-01T10:48:31.051Z,66.30
2018-04-01T10:49:31.079Z,63.80
2018-04-01T10:50:31.032Z,54.00
2018-04-01T10:51:31.023Z,50.30
2018-04-01T10:52:31.012Z,49.60
2018-04-01T10:53:31.005Z,66.80
2018-04-01T10:54:30.995Z,49.60
2018-04-01T10:55:30.986Z,56.40
2018-04-01T10:56:30.981Z,53.00
2018-04-01T10:57:30.976Z,48.60
2018-04-01T10:58:30.957Z,50.80
2018-04-01T10:59:30.950Z,51.00
2018-04-01T11:00:30.950Z,50.40
2018-04-01T11:01:30.928Z,47.80
2018-04-01T11:02:30.919Z,48.60
2018-04-01T11:03:30.909Z,49.90
2018-04-01T11:04:30.899Z,50.10
2018-04-01T11:05:30.888Z,49.20
2018-04-01T11:06:30.881Z,53.20
2018-04-01T11:07:30.869Z,54.00
2018-04-01T11:08:30.861Z,55.60
2018-04-01T11:09:30.855Z,59.00
2018-04-01T11:10:30.843Z,58.40
2018-04-01T11:11:30.832Z,60.10
2018-04-01T11:12:30.823Z,60.90
2018-04-01T11:13:30.813Z,59.80
2018-04-01T11:14:30.808Z,60.10
2018-04-01T11:15:30.797Z,59.60
2018-04-01T11:16:30.784Z,59.70
2018-04-01T11:17:30.776Z,61.70
2018-04-01T11:18:30.764Z,58.70
2018-04-01T11:19:30.757Z,61.00
2018-04-01T11:20:30.746Z,59.80
2018-04-01T11:21:30.740Z,61.60
2018-04-01T11:22:30.731Z,61.60
2018-04-01T11:23:30.721Z,61.10
2018-04-01T11:24:30.711Z,57.50
2018-04-01T11:25:30.707Z,62.70
2018-04-01T11:26:30.694Z,59.60
2018-04-01T11:27:30.682Z,56.80
2018-04-01T11:28:30.672Z,59.90
2018-04-01T11:29:30.663Z,58.90
2018-04-01T11:30:30.655Z,60.70
2018-04-01T11:31:30.701Z,58.40
2018-04-01T11:32:30.635Z,60.80
2018-04-01T11:33:30.624Z,57.90
2018-04-01T11:34:30.615Z,58.60
2018-04-01T11:35:30.609Z,59.90
2018-04-01T11:36:30.602Z,56.50
2018-04-01T11:37:30.590Z,57.90
2018-04-01T11:38:30.580Z,57.10
2018-04-01T11:39:30.572Z,58.40
2018-04-01T11:40:30.561Z,55.70
2018-04-01T11:41:30.553Z,58.00
2018-04-01T11:42:30.559Z,56.90
2018-04-01T11:43:30.537Z,57.60
2018-04-01T11:44:30.527Z,56.90
2018-04-01T11:45:30.520Z,55.30
2018-04-01T11:46:30.514Z,53.10
2018-04-01T11:47:30.495Z,52.60
2018-04-01T11:48:30.494Z,53.00
2018-04-01T11:49:30.482Z,53.80
2018-04-01T11:50:30.470Z,53.30
2018-04-01T11:51:30.464Z,52.70
2018-04-01T11:52:30.454Z,54.40
2018-04-01T11:53:30.464Z,52.90
2018-04-01T11:54:30.436Z,53.90
2018-04-01T11:55:30.428Z,51.20
2018-04-01T11:56:30.419Z,48.90
2018-04-01T11:57:30.412Z,48.80
2018-04-01T11:58:30.403Z,49.20
2018-04-01T11:59:30.396Z,48.80
2018-04-01T12:00:30.386Z,45.50
2018-04-01T12:01:30.382Z,45.10
2018-04-01T12:02:30.372Z,43.30
2018-04-01T12:03:30.363Z,45.20
2018-04-01T12:04:30.356Z,44.20
2018-04-01T12:05:30.343Z,43.60
2018-04-01T12:06:30.378Z,43.70
2018-04-01T12:07:30.330Z,43.40
2018-04-01T12:08:30.322Z,44.00
2018-04-01T12:09:30.314Z,44.20
2018-04-01T12:10:30.307Z,45.70
2018-04-01T12:11:30.304Z,46.80
2018-04-01T12:12:30.288Z,45.70
2018-04-01T12:13:30.282Z,47.60
2018-04-01T12:14:30.273Z,47.60
2018-04-01T12:15:30.268Z,48.90
2018-04-01T12:16:30.341Z,46.80
2018-04-01T12:17:30.248Z,48.50
2018-04-01T12:18:30.243Z,49.90
2018-04-01T12:19:30.233Z,48.00
2018-04-01T12:20:30.223Z,48.30
2018-04-01T12:21:30.218Z,44.90
2018-04-01T12:22:30.208Z,45.40
2018-04-01T12:23:30.202Z,44.80
2018-04-01T12:24:30.196Z,42.90
2018-04-01T12:25:30.186Z,42.60
2018-04-01T12:26:30.178Z,45.40
2018-04-01T12:27:30.187Z,40.90
2018-04-01T12:28:30.162Z,42.30
2018-04-01T12:29:30.157Z,41.50
2018-04-01T12:30:30.148Z,41.50
2018-04-01T12:31:30.139Z,40.40
2018-04-01T12:32:30.132Z,41.70
2018-04-01T12:33:30.126Z,42.40
2018-04-01T12:34:30.118Z,42.60
2018-04-01T12:35:30.104Z,42.10
2018-04-01T12:36:30.101Z,43.20
2018-04-01T12:37:30.094Z,42.80
2018-04-01T12:38:30.087Z,44.00
2018-04-01T12:39:30.076Z,42.00
2018-04-01T12:40:30.066Z,43.20
2018-04-01T12:41:30.060Z,42.00
2018-04-01T12:42:30.058Z,43.00
2018-04-01T12:43:30.047Z,40.50
2018-04-01T12:44:30.041Z,42.60
2018-04-01T12:45:30.036Z,43.30
2018-04-01T12:46:30.026Z,40.50
2018-04-01T12:47:30.023Z,40.50
2018-04-01T12:48:30.060Z,41.30
2018-04-01T12:49:30.006Z,39.90
2018-04-01T12:50:29.995Z,39.60
2018-04-01T12:51:29.990Z,39.70
2018-04-01T12:52:29.983Z,39.50
2018-04-01T12:53:30.000Z,38.30
2018-04-01T12:54:29.965Z,38.60
2018-04-01T12:55:29.965Z,38.70
2018-04-01T12:56:29.950Z,38.30
2018-04-01T12:57:29.946Z,37.60
2018-04-01T12:58:29.944Z,36.30
2018-04-01T12:59:29.936Z,35.50
2018-04-01T13:00:29.946Z,37.40
2018-04-01T13:01:29.916Z,36.20
2018-04-01T13:02:29.906Z,35.90
2018-04-01T13:03:29.905Z,36.40
2018-04-01T13:04:29.896Z,35.90
2018-04-01T13:05:29.891Z,35.00
2018-04-01T13:06:29.883Z,37.00
2018-04-01T13:07:29.880Z,37.00
2018-04-01T13:08:29.889Z,36.00
2018-04-01T13:09:29.869Z,36.80
2018-04-01T13:10:29.915Z,37.80
2018-04-01T13:11:29.851Z,36.80
2018-04-01T13:12:29.845Z,36.50
2018-04-01T13:13:29.835Z,36.50
2018-04-01T13:14:29.825Z,36.20
2018-04-01T13:15:29.816Z,35.60
2018-04-01T13:16:29.810Z,35.60
2018-04-01T13:17:29.809Z,35.50
2018-04-01T13:18:29.801Z,36.90
2018-04-01T13:19:29.804Z,36.90
2018-04-01T13:20:29.785Z,37.20
2018-04-01T13:21:29.779Z,38.00
2018-04-01T13:22:29.768Z,36.40
2018-04-01T13:23:29.761Z,37.50